createdAt,value
2022-12-08T00:00:29.472Z,2.00
2022-12-08T00:01:29.478Z,2.20
2022-12-08T00:02:29.714Z,2.00
2022-12-08T00:03:29.589Z,1.90
2022-12-08T00:04:29.449Z,1.90
2022-12-08T00:05:29.508Z,2.30
2022-12-08T00:06:29.407Z,2.50
2022-12-08T00:07:29.395Z,3.60
2022-12-08T00:08:29.386Z,2.50
2022-12-08T00:09:34.733Z,2.10
2022-12-08T00:10:58.642Z,4.30
2022-12-08T00:11:30.339Z,2.30
2022-12-08T00:12:29.337Z,2.50
2022-12-08T00:13:29.320Z,2.40
2022-12-08T00:14:29.340Z,2.30
2022-12-08T00:15:29.518Z,2.30
2022-12-08T00:16:29.327Z,2.60
2022-12-08T00:17:29.280Z,2.10
2022-12-08T00:18:29.293Z,2.20
2022-12-08T00:19:29.280Z,2.20
2022-12-08T00:20:29.246Z,2.30
2022-12-08T00:21:29.232Z,3.80
2022-12-08T00:22:29.225Z,2.00
2022-12-08T00:23:29.228Z,2.80
2022-12-08T00:24:29.212Z,2.60
2022-12-08T00:25:29.212Z,2.60
2022-12-08T00:26:29.197Z,2.60
2022-12-08T00:27:29.164Z,2.50
2022-12-08T00:28:29.158Z,3.00
2022-12-08T00:29:29.175Z,2.10
2022-12-08T00:30:29.139Z,2.90
2022-12-08T00:31:29.300Z,2.60
2022-12-08T00:32:29.124Z,2.30
2022-12-08T00:33:29.094Z,2.20
2022-12-08T00:34:29.116Z,2.20
2022-12-08T00:35:29.075Z,2.60
2022-12-08T00:36:29.072Z,2.40
2022-12-08T00:37:29.081Z,2.00
2022-12-08T00:38:29.050Z,2.10
2022-12-08T00:39:29.053Z,2.50
2022-12-08T00:40:29.049Z,4.30
2022-12-08T00:41:29.008Z,4.20
2022-12-08T00:42:29.021Z,3.70
2022-12-08T00:43:29.004Z,3.80
2022-12-08T00:44:28.980Z,5.10
2022-12-08T00:45:29.002Z,6.40
2022-12-08T00:46:29.045Z,3.20
2022-12-08T00:47:28.967Z,2.70
2022-12-08T00:48:28.954Z,3.30
2022-12-08T00:49:28.940Z,2.90
2022-12-08T00:50:28.953Z,2.70
2022-12-08T00:51:28.897Z,2.60
2022-12-08T00:52:28.890Z,4.00
2022-12-08T00:53:28.874Z,4.00
2022-12-08T00:54:28.871Z,2.50
2022-12-08T00:55:28.871Z,3.00
2022-12-08T00:56:28.847Z,2.60
2022-12-08T00:57:28.849Z,2.50
2022-12-08T00:58:28.823Z,2.30
2022-12-08T00:59:28.805Z,2.50
2022-12-08T01:00:28.817Z,2.50
2022-12-08T01:01:28.904Z,2.30
2022-12-08T01:02:28.786Z,2.80
2022-12-08T01:03:28.845Z,2.70
2022-12-08T01:04:28.756Z,3.10
2022-12-08T01:05:28.777Z,2.40
2022-12-08T01:06:28.773Z,2.50
2022-12-08T01:07:28.747Z,2.40
2022-12-08T01:08:28.752Z,2.60
2022-12-08T01:09:28.702Z,2.40
2022-12-08T01:10:28.691Z,1.90
2022-12-08T01:11:28.680Z,2.00
2022-12-08T01:12:28.695Z,2.30
2022-12-08T01:13:28.651Z,2.50
2022-12-08T01:14:28.645Z,2.10
2022-12-08T01:15:28.631Z,2.30
2022-12-08T01:16:28.682Z,2.20
2022-12-08T01:17:28.627Z,2.30
2022-12-08T01:18:28.646Z,2.40
2022-12-08T01:19:28.589Z,2.60
2022-12-08T01:20:28.603Z,2.40
2022-12-08T01:21:28.600Z,2.30
2022-12-08T01:22:28.594Z,3.20
2022-12-08T01:23:28.549Z,2.20
2022-12-08T01:24:28.535Z,2.20
2022-12-08T01:25:28.519Z,2.60
2022-12-08T01:26:28.511Z,2.70
2022-12-08T01:27:28.519Z,2.60
2022-12-08T01:28:28.492Z,2.40
2022-12-08T01:29:28.472Z,2.40
2022-12-08T01:30:28.498Z,2.50
2022-12-08T01:31:28.567Z,2.50
2022-12-08T01:32:28.445Z,2.40
2022-12-08T01:33:28.433Z,2.40
2022-12-08T01:34:28.425Z,2.20
2022-12-08T01:35:28.417Z,2.40
2022-12-08T01:36:28.425Z,2.00
2022-12-08T01:37:28.386Z,2.30
2022-12-08T01:38:28.397Z,2.60
2022-12-08T01:39:28.379Z,2.40
2022-12-08T01:40:28.353Z,2.40
2022-12-08T01:41:28.370Z,2.60
2022-12-08T01:42:28.333Z,2.60
2022-12-08T01:43:28.319Z,2.10
2022-12-08T01:44:28.312Z,2.60
2022-12-08T01:45:28.301Z,2.30
2022-12-08T01:46:28.390Z,2.40
2022-12-08T01:47:28.352Z,2.20
2022-12-08T01:48:28.407Z,2.20
2022-12-08T01:49:28.254Z,2.30
2022-12-08T01:50:28.245Z,2.10
2022-12-08T01:51:28.247Z,2.10
2022-12-08T01:52:28.222Z,2.50
2022-12-08T01:53:28.206Z,2.40
2022-12-08T01:54:28.219Z,2.00
2022-12-08T01:55:28.182Z,2.20
2022-12-08T01:56:28.195Z,2.20
2022-12-08T01:57:28.165Z,2.20
2022-12-08T01:58:28.149Z,2.00
2022-12-08T01:59:28.176Z,2.40
2022-12-08T02:00:28.130Z,2.20
2022-12-08T02:01:28.989Z,2.20
2022-12-08T02:02:28.186Z,2.10
2022-12-08T02:03:28.099Z,1.80
2022-12-08T02:04:28.105Z,1.90
2022-12-08T02:05:28.080Z,2.10
2022-12-08T02:06:28.066Z,2.00
2022-12-08T02:07:28.065Z,2.10
2022-12-08T02:08:28.088Z,1.80
2022-12-08T02:09:28.057Z,2.30
2022-12-08T02:10:28.038Z,2.40
2022-12-08T02:11:28.011Z,2.10
2022-12-08T02:12:28.001Z,2.10
2022-12-08T02:13:28.005Z,2.20
2022-12-08T02:14:27.991Z,2.10
2022-12-08T02:15:27.985Z,2.10
2022-12-08T02:16:28.035Z,2.10
2022-12-08T02:17:27.944Z,2.00
2022-12-08T02:18:27.953Z,1.80
2022-12-08T02:19:31.124Z,1.80
2022-12-08T02:20:27.929Z,2.00
2022-12-08T02:21:27.904Z,1.60
2022-12-08T02:22:27.904Z,1.80
2022-12-08T02:23:28.030Z,2.00
2022-12-08T02:24:27.873Z,1.80
2022-12-08T02:25:27.852Z,1.90
2022-12-08T02:26:27.859Z,1.90
2022-12-08T02:27:27.838Z,2.10
2022-12-08T02:28:27.819Z,2.40
2022-12-08T02:29:27.840Z,2.30
2022-12-08T02:30:27.847Z,2.30
2022-12-08T02:31:27.885Z,2.30
2022-12-08T02:32:27.800Z,2.20
2022-12-08T02:33:27.766Z,1.90
2022-12-08T02:34:27.770Z,2.10
2022-12-08T02:35:27.744Z,2.30
2022-12-08T02:36:27.824Z,2.40
2022-12-08T02:37:27.731Z,2.00
2022-12-08T02:38:27.704Z,1.80
2022-12-08T02:39:27.716Z,2.00
2022-12-08T02:40:27.685Z,2.00
2022-12-08T02:41:27.686Z,1.80
2022-12-08T02:42:27.677Z,2.10
2022-12-08T02:43:27.663Z,1.70
2022-12-08T02:44:27.658Z,2.00
2022-12-08T02:45:27.658Z,2.60
2022-12-08T02:46:27.755Z,2.00
2022-12-08T02:47:27.620Z,1.80
2022-12-08T02:48:27.590Z,2.10
2022-12-08T02:49:27.591Z,2.10
2022-12-08T02:50:27.589Z,2.10
2022-12-08T02:51:27.586Z,1.80
2022-12-08T02:52:27.570Z,1.90
2022-12-08T02:53:27.565Z,1.80
2022-12-08T02:54:27.525Z,1.90
2022-12-08T02:55:27.547Z,2.30
2022-12-08T02:56:27.509Z,1.90
2022-12-08T02:57:27.507Z,2.00
2022-12-08T02:58:27.517Z,1.80
2022-12-08T02:59:27.479Z,2.10
2022-12-08T03:00:27.481Z,2.10
2022-12-08T03:01:27.527Z,1.90
2022-12-08T03:02:27.488Z,2.30
2022-12-08T03:03:27.433Z,2.10
2022-12-08T03:04:27.448Z,2.10
2022-12-08T03:05:27.407Z,1.90
2022-12-08T03:06:27.393Z,2.10
2022-12-08T03:07:27.385Z,1.90
2022-12-08T03:08:27.530Z,1.90
2022-12-08T03:09:27.383Z,1.90
2022-12-08T03:10:27.353Z,2.00
2022-12-08T03:11:27.380Z,2.30
2022-12-08T03:12:27.351Z,1.80
2022-12-08T03:13:27.338Z,2.20
2022-12-08T03:14:27.333Z,2.10
2022-12-08T03:15:27.407Z,2.10
2022-12-08T03:16:27.412Z,2.10
2022-12-08T03:17:27.274Z,1.70
2022-12-08T03:18:27.263Z,2.20
2022-12-08T03:19:27.296Z,1.70
2022-12-08T03:20:27.235Z,2.40
2022-12-08T03:21:27.254Z,1.90
2022-12-08T03:22:27.236Z,1.70
2022-12-08T03:23:27.208Z,1.90
2022-12-08T03:24:27.196Z,2.10
2022-12-08T03:25:27.188Z,1.90
2022-12-08T03:26:27.190Z,1.70
2022-12-08T03:27:27.164Z,2.00
2022-12-08T03:28:27.145Z,1.90
2022-12-08T03:29:27.142Z,1.90
2022-12-08T03:30:27.161Z,2.20
2022-12-08T03:31:27.194Z,2.00
2022-12-08T03:32:27.125Z,2.10
2022-12-08T03:33:27.096Z,2.30
2022-12-08T03:34:27.087Z,2.10
2022-12-08T03:35:27.100Z,2.10
2022-12-08T03:36:27.072Z,2.40
2022-12-08T03:37:27.050Z,1.90
2022-12-08T03:38:27.053Z,2.40
2022-12-08T03:39:27.031Z,2.00
2022-12-08T03:40:27.035Z,2.10
2022-12-08T03:41:27.008Z,2.00
2022-12-08T03:42:27.406Z,2.00
2022-12-08T03:43:26.988Z,2.20
2022-12-08T03:44:26.974Z,2.20
2022-12-08T03:45:26.985Z,2.10
2022-12-08T03:46:30.689Z,2.20
2022-12-08T03:47:26.954Z,2.20
2022-12-08T03:48:26.946Z,2.10
2022-12-08T03:49:26.917Z,2.00
2022-12-08T03:50:26.930Z,2.00
2022-12-08T03:51:26.893Z,2.30
2022-12-08T03:52:26.914Z,2.20
2022-12-08T03:53:26.873Z,2.00
2022-12-08T03:54:26.874Z,1.90
2022-12-08T03:55:26.850Z,2.10
2022-12-08T03:56:26.859Z,2.10
2022-12-08T03:57:26.823Z,1.90
2022-12-08T03:58:26.818Z,2.20
2022-12-08T03:59:26.814Z,6.30
2022-12-08T04:00:26.802Z,3.00
2022-12-08T04:01:26.871Z,2.60
2022-12-08T04:02:26.860Z,2.30
2022-12-08T04:03:26.800Z,2.40
2022-12-08T04:04:26.759Z,2.30
2022-12-08T04:05:26.737Z,2.80
2022-12-08T04:06:26.757Z,2.60
2022-12-08T04:07:26.715Z,2.80
2022-12-08T04:08:26.811Z,2.80
2022-12-08T04:09:26.690Z,2.70
2022-12-08T04:10:26.683Z,2.50
2022-12-08T04:11:26.694Z,2.50
2022-12-08T04:12:26.669Z,2.70
2022-12-08T04:13:26.646Z,2.10
2022-12-08T04:14:26.641Z,2.40
2022-12-08T04:15:26.625Z,2.50
2022-12-08T04:16:26.713Z,2.60
2022-12-08T04:17:26.621Z,2.40
2022-12-08T04:18:26.641Z,2.70
2022-12-08T04:19:26.580Z,2.00
2022-12-08T04:20:26.577Z,2.40
2022-12-08T04:21:26.596Z,2.20
2022-12-08T04:22:26.553Z,2.40
2022-12-08T04:23:26.552Z,2.30
2022-12-08T04:24:26.541Z,2.50
2022-12-08T04:25:26.516Z,2.40
2022-12-08T04:26:26.516Z,2.90
2022-12-08T04:27:26.498Z,2.70
2022-12-08T04:28:26.524Z,2.80
2022-12-08T04:29:26.473Z,3.00
2022-12-08T04:30:26.480Z,2.80
2022-12-08T04:31:26.595Z,3.00
2022-12-08T04:32:26.516Z,2.80
2022-12-08T04:33:26.454Z,2.40
2022-12-08T04:34:26.447Z,2.70
2022-12-08T04:35:26.405Z,2.50
2022-12-08T04:36:26.409Z,2.60
2022-12-08T04:37:26.388Z,2.80
2022-12-08T04:38:26.396Z,3.00
2022-12-08T04:39:26.374Z,2.40
2022-12-08T04:40:26.358Z,2.90
2022-12-08T04:41:26.340Z,2.80
2022-12-08T04:42:26.367Z,2.80
2022-12-08T04:43:26.341Z,2.70
2022-12-08T04:44:26.319Z,2.50
2022-12-08T04:45:26.298Z,2.90
2022-12-08T04:46:26.343Z,3.10
2022-12-08T04:47:26.285Z,2.70
2022-12-08T04:48:26.284Z,2.60
2022-12-08T04:49:26.245Z,2.80
2022-12-08T04:50:26.263Z,2.70
2022-12-08T04:51:26.231Z,2.90
2022-12-08T04:52:26.223Z,2.70
2022-12-08T04:53:26.225Z,2.80
2022-12-08T04:54:26.202Z,3.00
2022-12-08T04:55:26.182Z,2.60
2022-12-08T04:56:26.175Z,3.00
2022-12-08T04:57:26.179Z,2.60
2022-12-08T04:58:26.168Z,4.70
2022-12-08T04:59:26.144Z,12.60
2022-12-08T05:00:26.152Z,9.50
2022-12-08T05:01:26.191Z,11.70
2022-12-08T05:02:26.196Z,4.60
2022-12-08T05:03:28.689Z,4.70
2022-12-08T05:04:26.088Z,18.10
2022-12-08T05:05:26.074Z,4.90
2022-12-08T05:06:26.080Z,3.90
2022-12-08T05:07:26.067Z,5.80
2022-12-08T05:08:26.082Z,4.80
2022-12-08T05:09:26.043Z,4.00
2022-12-08T05:10:26.145Z,5.10
2022-12-08T05:11:26.197Z,3.40
2022-12-08T05:12:26.020Z,4.00
2022-12-08T05:13:25.995Z,4.10
2022-12-08T05:14:25.984Z,4.10
2022-12-08T05:15:25.957Z,3.20
2022-12-08T05:16:26.049Z,2.80
2022-12-08T05:17:25.954Z,2.80
2022-12-08T05:18:25.937Z,3.00
2022-12-08T05:19:25.923Z,3.30
2022-12-08T05:20:25.925Z,3.50
2022-12-08T05:21:25.891Z,2.70
2022-12-08T05:22:25.917Z,3.20
2022-12-08T05:23:26.656Z,2.80
2022-12-08T05:24:25.865Z,2.70
2022-12-08T05:25:25.846Z,2.70
2022-12-08T05:26:25.858Z,2.90
2022-12-08T05:27:25.821Z,2.90
2022-12-08T05:28:41.207Z,3.00
2022-12-08T05:29:26.802Z,3.00
2022-12-08T05:30:25.813Z,3.10
2022-12-08T05:31:25.844Z,2.90
2022-12-08T05:32:25.776Z,2.70
2022-12-08T05:33:25.753Z,2.90
2022-12-08T05:34:25.771Z,3.20
2022-12-08T05:35:25.757Z,3.90
2022-12-08T05:36:25.729Z,4.70
2022-12-08T05:37:25.714Z,3.30
2022-12-08T05:38:25.721Z,2.80
2022-12-08T05:39:25.712Z,2.90
2022-12-08T05:40:25.683Z,4.20
2022-12-08T05:41:25.694Z,2.80
2022-12-08T05:42:25.665Z,2.70
2022-12-08T05:43:25.647Z,2.60
2022-12-08T05:44:25.645Z,2.80
2022-12-08T05:45:25.682Z,4.20
2022-12-08T05:46:25.792Z,2.80
2022-12-08T05:47:25.602Z,4.60
2022-12-08T05:48:25.590Z,3.30
2022-12-08T05:49:25.576Z,4.10
2022-12-08T05:50:25.576Z,7.50
2022-12-08T05:51:25.575Z,2.70
2022-12-08T05:52:25.549Z,2.80
2022-12-08T05:53:25.555Z,2.70
2022-12-08T05:54:25.568Z,5.10
2022-12-08T05:55:25.515Z,4.50
2022-12-08T05:56:25.506Z,5.30
2022-12-08T05:57:25.493Z,3.00
2022-12-08T05:58:25.482Z,3.50
2022-12-08T05:59:25.492Z,3.20
2022-12-08T06:00:25.464Z,2.90
2022-12-08T06:01:25.444Z,3.10
2022-12-08T06:02:25.584Z,3.20
2022-12-08T06:03:25.511Z,5.80
2022-12-08T06:04:25.439Z,7.70
2022-12-08T06:05:25.397Z,2.90
2022-12-08T06:06:25.397Z,3.10
2022-12-08T06:07:25.402Z,2.90
2022-12-08T06:08:25.457Z,4.30
2022-12-08T06:09:25.374Z,5.10
2022-12-08T06:10:25.370Z,3.90
2022-12-08T06:11:25.337Z,3.40
2022-12-08T06:12:25.354Z,4.00
2022-12-08T06:13:25.333Z,2.90
2022-12-08T06:14:25.307Z,2.60
2022-12-08T06:15:25.295Z,2.90
2022-12-08T06:16:25.332Z,3.40
2022-12-08T06:17:25.282Z,3.20
2022-12-08T06:18:31.167Z,2.70
2022-12-08T06:19:26.276Z,7.70
2022-12-08T06:20:25.233Z,7.00
2022-12-08T06:21:25.245Z,3.40
2022-12-08T06:22:25.233Z,4.40
2022-12-08T06:23:25.206Z,5.60
2022-12-08T06:24:25.198Z,2.80
2022-12-08T06:25:25.186Z,2.60
2022-12-08T06:26:25.180Z,3.90
2022-12-08T06:27:25.183Z,3.10
2022-12-08T06:28:25.194Z,2.80
2022-12-08T06:29:25.159Z,3.30
2022-12-08T06:30:25.124Z,2.50
2022-12-08T06:31:25.208Z,3.10
2022-12-08T06:32:27.615Z,2.90
2022-12-08T06:33:25.114Z,2.40
2022-12-08T06:34:25.082Z,2.40
2022-12-08T06:35:25.070Z,2.30
2022-12-08T06:36:25.072Z,2.80
2022-12-08T06:37:25.072Z,2.10
2022-12-08T06:38:25.039Z,2.30
2022-12-08T06:39:25.030Z,2.40
2022-12-08T06:40:25.022Z,2.30
2022-12-08T06:41:25.030Z,2.40
2022-12-08T06:42:25.009Z,2.30
2022-12-08T06:43:24.984Z,2.60
2022-12-08T06:44:24.991Z,2.20
2022-12-08T06:45:24.958Z,2.10
2022-12-08T06:46:25.071Z,2.40
2022-12-08T06:47:26.462Z,2.50
2022-12-08T06:48:24.925Z,3.20
2022-12-08T06:49:24.919Z,3.10
2022-12-08T06:50:24.921Z,2.90
2022-12-08T06:51:24.892Z,2.70
2022-12-08T06:52:24.900Z,2.50
2022-12-08T06:53:24.880Z,2.60
2022-12-08T06:54:24.873Z,2.70
2022-12-08T06:55:57.266Z,3.10
2022-12-08T06:56:25.888Z,4.00
2022-12-08T06:57:25.589Z,2.50
2022-12-08T06:58:24.833Z,2.80
2022-12-08T06:59:24.824Z,2.20
2022-12-08T07:00:24.902Z,3.10
2022-12-08T07:01:24.894Z,2.80
2022-12-08T07:02:24.825Z,4.00
2022-12-08T07:03:24.760Z,4.10
2022-12-08T07:04:24.748Z,3.80
2022-12-08T07:05:24.737Z,2.70
2022-12-08T07:06:24.741Z,2.90
2022-12-08T07:07:24.758Z,16.10
2022-12-08T07:08:24.788Z,6.90
2022-12-08T07:09:24.694Z,2.80
2022-12-08T07:10:24.687Z,4.00
2022-12-08T07:11:24.792Z,3.90
2022-12-08T07:12:24.680Z,4.30
2022-12-08T07:13:24.649Z,3.40
2022-12-08T07:14:24.675Z,3.10
2022-12-08T07:15:24.630Z,3.20
2022-12-08T07:16:24.687Z,3.20
2022-12-08T07:17:24.608Z,3.00
2022-12-08T07:18:24.614Z,3.50
2022-12-08T07:19:24.586Z,3.40
2022-12-08T07:20:24.593Z,2.40
2022-12-08T07:21:24.564Z,3.10
2022-12-08T07:22:24.546Z,2.60
2022-12-08T07:23:24.544Z,2.60
2022-12-08T07:24:24.555Z,2.30
2022-12-08T07:25:24.522Z,3.00
2022-12-08T07:26:24.497Z,2.50
2022-12-08T07:27:24.496Z,2.60
2022-12-08T07:28:24.488Z,2.70
2022-12-08T07:29:26.395Z,2.60
2022-12-08T07:30:24.478Z,2.30
2022-12-08T07:31:24.603Z,2.90
2022-12-08T07:32:24.521Z,2.40
2022-12-08T07:33:24.431Z,2.80
2022-12-08T07:34:24.440Z,2.70
2022-12-08T07:35:24.411Z,3.00
2022-12-08T07:36:24.386Z,3.00
2022-12-08T07:37:24.390Z,2.80
2022-12-08T07:38:24.368Z,2.70
2022-12-08T07:39:24.366Z,3.00
2022-12-08T07:40:24.363Z,2.80
2022-12-08T07:41:24.343Z,2.60
2022-12-08T07:42:24.327Z,2.50
2022-12-08T07:43:24.315Z,2.80
2022-12-08T07:44:24.318Z,3.00
2022-12-08T07:45:29.857Z,2.50
2022-12-08T07:46:25.431Z,2.40
2022-12-08T07:47:24.279Z,2.40
2022-12-08T07:48:24.274Z,2.20
2022-12-08T07:49:24.273Z,2.50
2022-12-08T07:50:24.243Z,2.50
2022-12-08T07:51:24.245Z,2.70
2022-12-08T07:52:24.208Z,2.70
2022-12-08T07:53:24.202Z,3.10
2022-12-08T07:54:24.206Z,2.80
2022-12-08T07:55:24.183Z,2.40
2022-12-08T07:56:24.190Z,2.70
2022-12-08T07:57:24.178Z,2.70
2022-12-08T07:58:24.148Z,3.20
2022-12-08T07:59:24.158Z,3.00
2022-12-08T08:00:24.119Z,2.80
2022-12-08T08:01:24.300Z,2.70
2022-12-08T08:02:26.026Z,2.60
2022-12-08T08:03:24.091Z,2.70
2022-12-08T08:04:24.128Z,4.80
2022-12-08T08:05:24.072Z,5.50
2022-12-08T08:06:24.054Z,3.10
2022-12-08T08:07:24.045Z,3.00
2022-12-08T08:08:24.069Z,2.80
2022-12-08T08:09:24.032Z,2.80
2022-12-08T08:10:24.030Z,3.00
2022-12-08T08:11:24.009Z,3.10
2022-12-08T08:12:32.306Z,2.80
2022-12-08T08:13:24.989Z,2.80
2022-12-08T08:14:23.990Z,2.80
2022-12-08T08:15:23.963Z,2.50
2022-12-08T08:16:24.084Z,2.70
2022-12-08T08:17:24.095Z,2.80
2022-12-08T08:18:23.940Z,2.60
2022-12-08T08:19:23.968Z,3.10
2022-12-08T08:20:23.899Z,2.40
2022-12-08T08:21:48.193Z,2.60
2022-12-08T08:22:24.882Z,3.20
2022-12-08T08:23:23.871Z,3.10
2022-12-08T08:24:23.877Z,2.90
2022-12-08T08:25:23.854Z,2.90
2022-12-08T08:26:23.837Z,2.80
2022-12-08T08:27:23.828Z,2.90
2022-12-08T08:28:23.825Z,2.50
2022-12-08T08:29:23.819Z,2.60
2022-12-08T08:30:23.790Z,2.60
2022-12-08T08:31:23.813Z,3.00
2022-12-08T08:32:23.787Z,3.00
2022-12-08T08:33:23.775Z,2.70
2022-12-08T08:43:08.834Z,3.50
2022-12-08T08:44:08.845Z,3.30
2022-12-08T08:45:08.864Z,3.10
2022-12-08T08:46:08.910Z,2.80
2022-12-08T08:47:08.724Z,3.10
2022-12-08T08:48:08.756Z,3.40
2022-12-08T08:49:08.682Z,3.40
2022-12-08T08:50:09.031Z,3.50
2022-12-08T08:51:08.664Z,3.70
2022-12-08T08:52:08.601Z,4.00
2022-12-08T08:53:08.598Z,4.20
2022-12-08T08:54:08.611Z,4.70
2022-12-08T08:55:08.596Z,5.90
2022-12-08T08:56:08.551Z,5.80
2022-12-08T08:57:08.572Z,5.20
2022-12-08T08:58:08.537Z,4.90
2022-12-08T08:59:08.600Z,13.00
2022-12-08T09:00:08.560Z,14.00
2022-12-08T09:01:08.507Z,8.50
2022-12-08T09:02:08.541Z,4.60
2022-12-08T09:03:08.488Z,4.50
2022-12-08T09:04:08.560Z,4.00
2022-12-08T09:05:08.510Z,3.90
2022-12-08T09:06:08.504Z,3.50
2022-12-08T09:07:08.461Z,4.60
2022-12-08T09:08:08.437Z,3.30
2022-12-08T09:09:08.423Z,2.90
2022-12-08T09:10:08.767Z,2.90
2022-12-08T09:11:08.398Z,3.00
2022-12-08T09:12:08.441Z,2.80
2022-12-08T09:13:08.366Z,2.80
2022-12-08T09:14:08.354Z,2.90
2022-12-08T09:15:08.377Z,2.60
2022-12-08T09:16:08.391Z,2.80
2022-12-08T09:17:08.346Z,3.10
2022-12-08T09:18:08.308Z,2.90
2022-12-08T09:19:08.302Z,3.10
2022-12-08T09:20:08.344Z,2.70
2022-12-08T09:21:08.300Z,2.70
2022-12-08T09:22:08.281Z,2.80
2022-12-08T09:23:08.259Z,3.00
2022-12-08T09:24:08.242Z,3.00
2022-12-08T09:25:08.232Z,2.50
2022-12-08T09:26:08.231Z,2.50
2022-12-08T09:27:08.238Z,2.70
2022-12-08T09:28:08.197Z,2.60
2022-12-08T09:29:08.222Z,3.00
2022-12-08T09:30:08.175Z,3.00
2022-12-08T09:31:08.282Z,2.60
2022-12-08T09:32:08.182Z,2.70
2022-12-08T09:33:08.148Z,2.70
2022-12-08T09:34:08.141Z,2.70
2022-12-08T09:35:08.146Z,2.70
2022-12-08T09:36:08.104Z,2.80
2022-12-08T09:37:08.119Z,2.80
2022-12-08T09:38:08.083Z,2.70
2022-12-08T09:39:08.090Z,2.50
2022-12-08T09:40:08.306Z,2.30
2022-12-08T09:41:08.066Z,2.80
2022-12-08T09:42:08.089Z,2.40
2022-12-08T09:43:08.031Z,2.30
2022-12-08T09:44:08.016Z,2.50
2022-12-08T09:45:08.040Z,2.40
2022-12-08T09:46:08.055Z,2.50
2022-12-08T09:47:08.042Z,2.40
2022-12-08T09:48:07.982Z,2.60
2022-12-08T09:49:07.975Z,2.40
2022-12-08T09:50:08.397Z,2.20
2022-12-08T09:51:07.965Z,2.30
2022-12-08T09:52:07.927Z,2.50
2022-12-08T09:53:07.932Z,2.30
2022-12-08T09:54:10.663Z,2.60
2022-12-08T09:55:07.902Z,2.30
2022-12-08T09:56:07.902Z,2.30
2022-12-08T09:57:07.895Z,2.20
2022-12-08T09:58:07.903Z,2.00
2022-12-08T09:59:07.872Z,2.40
2022-12-08T10:00:08.157Z,2.20
2022-12-08T10:01:07.846Z,2.20
2022-12-08T10:02:07.875Z,2.60
2022-12-08T10:03:10.208Z,2.70
2022-12-08T10:04:08.828Z,2.50
2022-12-08T10:05:07.871Z,2.30
2022-12-08T10:06:07.783Z,2.60
2022-12-08T10:07:07.788Z,2.40
2022-12-08T10:08:07.817Z,2.50
2022-12-08T10:09:11.161Z,2.30
2022-12-08T10:10:07.903Z,2.40
2022-12-08T10:11:07.744Z,2.40
2022-12-08T10:12:07.732Z,2.30
2022-12-08T10:13:07.704Z,2.40
2022-12-08T10:14:07.689Z,2.50
2022-12-08T10:15:07.725Z,2.10
2022-12-08T10:16:07.729Z,2.40
2022-12-08T10:17:07.706Z,2.10
2022-12-08T10:18:07.674Z,2.90
2022-12-08T10:19:07.662Z,2.20
2022-12-08T10:20:07.897Z,2.30
2022-12-08T10:21:07.639Z,2.10
2022-12-08T10:22:07.625Z,2.20
2022-12-08T10:23:07.597Z,2.10
2022-12-08T10:24:07.574Z,2.40
2022-12-08T10:25:07.585Z,2.10
2022-12-08T10:26:07.562Z,2.00
2022-12-08T10:27:07.538Z,2.10
2022-12-08T10:28:07.588Z,2.10
2022-12-08T10:29:07.535Z,2.30
2022-12-08T10:30:07.797Z,2.00
2022-12-08T10:31:07.574Z,2.00
2022-12-08T10:32:07.531Z,2.20
2022-12-08T10:33:07.495Z,2.20
2022-12-08T10:34:07.483Z,1.70
2022-12-08T10:35:07.476Z,2.00
2022-12-08T10:36:07.468Z,2.30
2022-12-08T10:37:07.471Z,1.90
2022-12-08T10:38:07.419Z,2.30
2022-12-08T10:39:07.437Z,2.60
2022-12-08T10:40:07.864Z,2.00
2022-12-08T10:41:07.385Z,2.30
2022-12-08T10:42:07.405Z,2.00
2022-12-08T10:43:07.388Z,1.80
2022-12-08T10:44:07.350Z,2.10
2022-12-08T10:45:07.384Z,2.10
2022-12-08T10:46:07.360Z,1.80
2022-12-08T10:47:07.393Z,2.50
2022-12-08T10:48:07.316Z,2.00
2022-12-08T10:49:07.319Z,2.00
2022-12-08T10:50:07.595Z,2.10
2022-12-08T10:51:07.281Z,2.00
2022-12-08T10:52:07.249Z,2.10
2022-12-08T10:53:07.311Z,7.40
2022-12-08T10:54:07.280Z,2.40
2022-12-08T10:55:07.245Z,4.30
2022-12-08T10:56:07.210Z,3.80
2022-12-08T10:57:07.213Z,3.10
2022-12-08T10:58:07.235Z,2.90
2022-12-08T10:59:07.188Z,2.30
2022-12-08T11:00:13.634Z,2.20
2022-12-08T11:01:08.186Z,1.90
2022-12-08T11:02:07.266Z,2.00
2022-12-08T11:03:07.230Z,1.90
2022-12-08T11:04:07.149Z,2.30
2022-12-08T11:05:07.126Z,2.30
2022-12-08T11:06:10.863Z,2.40
2022-12-08T11:07:07.101Z,2.20
2022-12-08T11:08:07.121Z,2.30
2022-12-08T11:09:07.107Z,2.70
2022-12-08T11:10:07.461Z,2.40
2022-12-08T11:11:07.075Z,2.90
2022-12-08T11:12:07.031Z,2.90
2022-12-08T11:13:07.079Z,2.60
2022-12-08T11:14:07.017Z,2.60
2022-12-08T11:15:07.004Z,2.40
2022-12-08T11:16:07.050Z,2.50
2022-12-08T11:17:07.012Z,2.50
2022-12-08T11:18:07.013Z,2.70
2022-12-08T11:19:06.954Z,2.40
2022-12-08T11:20:07.254Z,2.60
2022-12-08T11:21:06.942Z,2.80
2022-12-08T11:22:06.945Z,2.60
2022-12-08T11:23:07.068Z,2.30
2022-12-08T11:24:06.905Z,2.70
2022-12-08T11:25:06.893Z,2.80
2022-12-08T11:26:06.948Z,2.70
2022-12-08T11:27:06.874Z,4.50
2022-12-08T11:28:06.875Z,3.20
2022-12-08T11:29:06.845Z,2.70
2022-12-08T11:30:12.600Z,2.70
2022-12-08T11:31:09.167Z,2.80
2022-12-08T11:32:06.856Z,2.70
2022-12-08T11:33:06.899Z,2.40
2022-12-08T11:34:06.819Z,2.80
2022-12-08T11:35:06.786Z,2.40
2022-12-08T11:36:06.772Z,2.50
2022-12-08T11:37:06.770Z,2.70
2022-12-08T11:38:21.008Z,3.50
2022-12-08T11:39:07.757Z,2.30
2022-12-08T11:40:07.177Z,2.30
2022-12-08T11:41:10.844Z,2.60
2022-12-08T11:42:07.715Z,2.60
2022-12-08T11:43:06.686Z,3.00
2022-12-08T11:44:06.703Z,2.50
2022-12-08T11:45:07.152Z,2.40
2022-12-08T11:46:06.739Z,2.50
2022-12-08T11:47:06.650Z,2.60
2022-12-08T11:48:06.676Z,2.50
2022-12-08T11:49:07.338Z,2.20
2022-12-08T11:50:07.085Z,2.60
2022-12-08T11:51:06.684Z,2.60
2022-12-08T11:52:06.611Z,2.60
2022-12-08T11:53:06.586Z,2.40
2022-12-08T11:54:06.587Z,3.00
2022-12-08T11:55:06.608Z,2.70
2022-12-08T11:56:06.561Z,2.30
2022-12-08T11:57:06.589Z,2.10
2022-12-08T11:58:06.577Z,2.20
2022-12-08T11:59:06.545Z,2.50
2022-12-08T12:00:06.695Z,2.10
2022-12-08T12:01:06.498Z,2.40
2022-12-08T12:02:06.569Z,3.20
2022-12-08T12:03:06.535Z,2.90
2022-12-08T12:04:06.501Z,2.40
2022-12-08T12:05:06.465Z,2.40
2022-12-08T12:06:13.691Z,2.50
2022-12-08T12:07:07.439Z,2.70
2022-12-08T12:08:06.462Z,2.50
2022-12-08T12:09:06.440Z,2.60
2022-12-08T12:10:06.752Z,2.10
2022-12-08T12:11:06.390Z,2.30
2022-12-08T12:12:06.388Z,2.10
2022-12-08T12:13:06.380Z,2.30
2022-12-08T12:14:06.387Z,1.80
2022-12-08T12:15:06.338Z,2.10
2022-12-08T12:16:06.311Z,2.40
2022-12-08T12:17:06.409Z,2.50
2022-12-08T12:18:06.325Z,2.20
2022-12-08T12:19:06.295Z,2.40
2022-12-08T12:20:06.461Z,2.10
2022-12-08T12:21:06.272Z,2.20
2022-12-08T12:22:06.280Z,2.30
2022-12-08T12:23:06.273Z,2.10
2022-12-08T12:24:06.238Z,2.10
2022-12-08T12:25:06.233Z,2.50
2022-12-08T12:26:06.257Z,2.20
2022-12-08T12:27:06.215Z,2.20
2022-12-08T12:28:06.217Z,2.30
2022-12-08T12:29:06.194Z,2.30
2022-12-08T12:30:06.293Z,2.30
2022-12-08T12:31:06.221Z,3.10
2022-12-08T12:32:06.188Z,2.50
2022-12-08T12:33:06.181Z,2.30
2022-12-08T12:34:06.127Z,2.60
2022-12-08T12:35:06.123Z,2.40
2022-12-08T12:36:06.097Z,2.20
2022-12-08T12:37:06.140Z,2.60
2022-12-08T12:38:06.083Z,2.50
2022-12-08T12:39:06.068Z,2.00
2022-12-08T12:40:06.294Z,2.20
2022-12-08T12:41:06.047Z,2.50
2022-12-08T12:42:06.052Z,2.40
2022-12-08T12:43:06.054Z,2.40
2022-12-08T12:44:06.027Z,2.40
2022-12-08T12:45:06.018Z,2.50
2022-12-08T12:46:06.058Z,2.20
2022-12-08T12:47:05.983Z,2.20
2022-12-08T12:48:05.981Z,2.00
2022-12-08T12:49:06.031Z,2.30
2022-12-08T12:50:06.323Z,2.30
2022-12-08T12:51:05.964Z,2.40
2022-12-08T12:52:05.928Z,2.40
2022-12-08T12:53:09.269Z,2.40
2022-12-08T12:54:06.899Z,2.30
2022-12-08T12:55:05.906Z,2.20
2022-12-08T12:56:05.879Z,2.30
2022-12-08T12:57:05.859Z,2.50
2022-12-08T12:58:05.884Z,2.30
2022-12-08T12:59:05.887Z,2.50
2022-12-08T13:00:06.064Z,2.30
2022-12-08T13:01:05.840Z,2.20
2022-12-08T13:02:05.835Z,2.70
2022-12-08T13:03:05.881Z,3.10
2022-12-08T13:04:05.875Z,6.50
2022-12-08T13:05:05.782Z,5.40
2022-12-08T13:06:09.979Z,4.00
2022-12-08T13:07:06.768Z,3.20
2022-12-08T13:08:08.810Z,3.00
2022-12-08T13:09:05.771Z,12.20
2022-12-08T13:10:06.055Z,3.20
2022-12-08T13:11:05.743Z,3.20
2022-12-08T13:12:05.716Z,2.90
2022-12-08T13:13:05.707Z,4.30
2022-12-08T13:14:05.722Z,6.40
2022-12-08T13:15:05.676Z,7.00
2022-12-08T13:16:17.108Z,13.60
2022-12-08T13:17:06.718Z,13.40
2022-12-08T13:18:05.651Z,8.90
2022-12-08T13:19:05.642Z,4.00
2022-12-08T13:20:06.176Z,12.30
2022-12-08T13:21:05.606Z,4.70
2022-12-08T13:22:05.590Z,14.90
2022-12-08T13:23:05.606Z,23.00
2022-12-08T13:24:05.578Z,13.30
2022-12-08T13:25:05.551Z,7.40
2022-12-08T13:26:05.544Z,4.90
2022-12-08T13:27:05.545Z,4.00